Time;durP1;ratioP1;P1;durP2;ratioP2;P2;SDS_P1;SDS_P2;PMS_P1;PMS_P2;Temp;Humidity;BMP_temperature;BMP_pressure;BME280_temperature;BME280_humidity;BME280_pressure;Samples;Min_cycle;Max_cycle;Signal;HPM_P1;HPM_P2
2023/06/06 00:02:07;;;;;;;2.47;2.27;;;19.90;63.40;;;;;;5063096;28;20493;-75
2023/06/06 00:04:35;;;;;;;3.43;3.10;;;19.90;63.50;;;;;;5067354;28;20517;-76
2023/06/06 00:07:08;;;;;;;2.37;2.17;;;19.90;63.70;;;;;;5060346;28;20505;-75
2023/06/06 00:09:35;;;;;;;3.93;2.70;;;19.90;63.80;;;;;;5065962;28;20468;-76
2023/06/06 00:12:25;;;;;;;3.20;2.67;;;19.80;63.90;;;;;;5053335;28;20542;-76
2023/06/06 00:14:52;;;;;;;2.63;2.43;;;19.80;64.10;;;;;;5065041;28;20522;-76
2023/06/06 00:17:20;;;;;;;4.23;2.50;;;19.70;64.20;;;;;;5065402;28;20476;-75
2023/06/06 00:19:47;;;;;;;2.53;2.33;;;19.70;64.40;;;;;;5052056;28;20786;-75
2023/06/06 00:22:15;;;;;;;2.50;2.23;;;19.70;64.40;;;;;;5050466;28;20495;-75
2023/06/06 00:24:46;;;;;;;2.50;2.30;;;19.60;64.40;;;;;;5051104;28;20462;-75
2023/06/06 00:27:12;;;;;;;2.47;2.27;;;19.60;64.80;;;;;;5051698;28;20471;-75
2023/06/06 00:29:39;;;;;;;3.07;2.50;;;19.60;65.00;;;;;;5053322;28;20475;-75
2023/06/06 00:32:07;;;;;;;3.40;3.10;;;19.50;65.00;;;;;;5052166;28;20533;-75
2023/06/06 00:34:36;;;;;;;3.43;3.00;;;19.50;65.10;;;;;;5055706;28;20462;-75
2023/06/06 00:37:05;;;;;;;3.87;2.50;;;19.50;65.20;;;;;;5042791;28;20474;-75
2023/06/06 00:39:33;;;;;;;2.63;2.30;;;19.50;65.30;;;;;;5051594;28;20562;-75
2023/06/06 00:42:00;;;;;;;3.20;2.67;;;19.50;65.40;;;;;;5052326;28;21214;-76
2023/06/06 00:44:28;;;;;;;2.97;2.67;;;19.50;65.40;;;;;;5052051;28;20859;-75
2023/06/06 00:46:55;;;;;;;4.30;3.60;;;19.40;65.20;;;;;;5053073;28;20483;-75
2023/06/06 00:49:26;;;;;;;2.53;2.33;;;19.40;65.50;;;;;;5042780;28;20475;-75
2023/06/06 00:51:54;;;;;;;5.33;3.07;;;19.30;65.50;;;;;;5052304;28;20528;-76
2023/06/06 00:54:23;;;;;;;2.13;1.93;;;19.30;65.60;;;;;;5052648;28;20470;-75
2023/06/06 00:56:53;;;;;;;5.43;2.70;;;19.30;65.60;;;;;;5053254;28;20482;-75
2023/06/06 00:59:23;;;;;;;2.20;2.00;;;19.20;65.60;;;;;;5052513;28;20477;-75
2023/06/06 01:01:50;;;;;;;2.57;2.37;;;19.20;65.90;;;;;;5052998;28;20467;-74
2023/06/06 01:04:19;;;;;;;2.97;2.00;;;19.10;66.00;;;;;;5052195;28;20502;-76
2023/06/06 01:06:49;;;;;;;3.00;2.43;;;19.10;66.20;;;;;;5052647;28;20551;-75
2023/06/06 01:09:19;;;;;;;4.27;2.60;;;19.10;66.20;;;;;;5052044;28;20861;-76
2023/06/06 01:11:59;;;;;;;5.03;3.07;;;19.10;67.00;;;;;;5044667;28;20475;-76
2023/06/06 01:14:37;;;;;;;3.30;2.47;;;19.00;66.10;;;;;;5052265;28;20474;-76
2023/06/06 01:17:10;;;;;;;2.63;2.43;;;19.00;66.20;;;;;;5053009;28;20486;-75
2023/06/06 01:19:41;;;;;;;3.60;2.90;;;19.00;66.30;;;;;;5052593;28;20470;-75
2023/06/06 01:22:13;;;;;;;2.83;2.33;;;19.00;66.20;;;;;;5052187;28;20471;-75
2023/06/06 01:24:53;;;;;;;2.70;2.50;;;18.90;66.20;;;;;;5052219;28;20459;-75
2023/06/06 01:27:23;;;;;;;3.23;2.93;;;18.90;66.20;;;;;;5051777;28;20476;-77
2023/06/06 01:29:52;;;;;;;2.50;2.30;;;18.80;66.10;;;;;;5052985;28;20544;-76
2023/06/06 01:32:28;;;;;;;2.50;2.30;;;18.80;66.10;;;;;;5052076;28;20467;-75
2023/06/06 01:35:06;;;;;;;2.77;2.50;;;18.80;66.10;;;;;;5051886;28;20471;-76
2023/06/06 01:37:45;;;;;;;3.30;2.60;;;18.70;66.20;;;;;;5051897;28;20469;-76
2023/06/06 01:40:22;;;;;;;2.70;2.40;;;18.70;66.30;;;;;;5051874;28;20471;-75
2023/06/06 01:42:52;;;;;;;3.37;3.07;;;18.70;66.30;;;;;;5044014;28;20960;-75
2023/06/06 01:45:26;;;;;;;2.30;2.10;;;18.60;66.40;;;;;;5052280;28;20475;-74
2023/06/06 01:47:54;;;;;;;2.60;2.40;;;18.60;66.40;;;;;;5052441;28;21133;-75
2023/06/06 01:50:24;;;;;;;2.50;2.30;;;18.60;66.50;;;;;;5053624;28;20542;-75
2023/06/06 01:53:11;;;;;;;2.60;2.33;;;18.60;67.40;;;;;;5051931;28;20547;-75
2023/06/06 01:55:42;;;;;;;2.90;2.70;;;18.60;66.60;;;;;;5052015;28;20521;-75
2023/06/06 01:58:35;;;;;;;3.07;2.77;;;18.60;66.60;;;;;;5032578;28;20985;-76
2023/06/06 02:01:06;;;;;;;3.00;2.80;;;18.60;66.60;;;;;;5031549;28;20475;-77
2023/06/06 02:03:38;;;;;;;2.43;2.13;;;18.60;66.60;;;;;;5032384;28;20505;-76
2023/06/06 02:06:07;;;;;;;2.93;2.73;;;18.60;66.70;;;;;;5032284;28;20543;-75
2023/06/06 02:08:36;;;;;;;5.13;3.00;;;18.60;66.70;;;;;;5027640;28;20468;-75
2023/06/06 02:11:07;;;;;;;2.80;2.60;;;18.60;66.60;;;;;;5031564;28;20910;-74
2023/06/06 02:13:36;;;;;;;3.03;2.10;;;18.60;66.70;;;;;;5033019;28;20518;-75
2023/06/06 02:16:05;;;;;;;3.90;2.67;;;18.60;66.70;;;;;;5031363;28;20488;-75
2023/06/06 02:18:33;;;;;;;3.00;2.77;;;18.60;66.60;;;;;;5032305;28;20957;-74
2023/06/06 02:21:27;;;;;;;3.70;3.40;;;18.50;66.60;;;;;;5031754;28;20468;-75
2023/06/06 02:23:57;;;;;;;2.70;2.50;;;18.50;66.70;;;;;;5031782;28;20545;-75
2023/06/06 02:26:25;;;;;;;4.53;2.70;;;18.50;66.70;;;;;;5031516;28;20471;-76
2023/06/06 02:28:54;;;;;;;3.20;2.90;;;18.50;66.80;;;;;;5030221;28;20510;-75
2023/06/06 02:31:23;;;;;;;3.10;2.80;;;18.50;66.90;;;;;;5020943;28;20475;-75
2023/06/06 02:33:53;;;;;;;4.60;2.70;;;18.40;66.90;;;;;;5032095;28;20479;-75
2023/06/06 02:36:21;;;;;;;2.70;2.50;;;18.40;67.00;;;;;;5032542;28;20476;-75
2023/06/06 02:38:48;;;;;;;3.50;2.67;;;18.40;67.00;;;;;;5035644;28;20476;-76
2023/06/06 02:41:19;;;;;;;3.00;2.70;;;18.40;67.10;;;;;;5036549;28;20502;-75
2023/06/06 02:43:50;;;;;;;3.60;2.93;;;18.40;67.10;;;;;;5031776;28;20532;-75
2023/06/06 02:46:21;;;;;;;2.47;2.27;;;18.40;67.10;;;;;;5041367;28;20568;-77
2023/06/06 02:48:49;;;;;;;2.73;2.53;;;18.40;67.20;;;;;;5035711;28;20526;-75
2023/06/06 02:51:19;;;;;;;3.83;3.03;;;18.40;67.30;;;;;;5035630;28;20851;-76
2023/06/06 02:53:47;;;;;;;3.53;2.57;;;18.40;67.40;;;;;;5040744;28;20483;-75
2023/06/06 02:56:16;;;;;;;2.43;2.23;;;18.30;67.40;;;;;;5039136;28;20482;-76
2023/06/06 02:58:45;;;;;;;3.87;2.30;;;18.30;67.30;;;;;;5055752;28;20498;-75
2023/06/06 03:01:13;;;;;;;5.70;2.80;;;18.30;67.40;;;;;;5055085;28;20503;-75
2023/06/06 03:03:41;;;;;;;2.90;2.50;;;18.30;67.50;;;;;;5055620;28;20818;-75
2023/06/06 03:06:12;;;;;;;3.17;2.87;;;18.30;67.50;;;;;;5054893;28;20481;-75
2023/06/06 03:08:42;;;;;;;2.77;2.57;;;18.40;67.50;;;;;;5055257;28;20504;-75
2023/06/06 03:11:15;;;;;;;4.50;2.80;;;18.30;67.40;;;;;;5054066;28;20474;-75
2023/06/06 03:13:49;;;;;;;4.60;2.97;;;18.30;67.80;;;;;;5055433;28;20463;-75
2023/06/06 03:16:17;;;;;;;2.90;2.70;;;18.30;67.70;;;;;;5054848;28;20479;-75
2023/06/06 03:18:48;;;;;;;3.63;2.70;;;18.30;67.70;;;;;;5055575;28;20455;-75
2023/06/06 03:21:16;;;;;;;3.60;2.40;;;18.30;67.70;;;;;;5054628;28;20463;-74
2023/06/06 03:23:43;;;;;;;3.13;2.70;;;18.40;67.70;;;;;;5055107;28;20535;-76
2023/06/06 03:26:11;;;;;;;4.37;3.03;;;18.40;67.70;;;;;;5055007;28;20482;-76
2023/06/06 03:28:42;;;;;;;3.33;2.63;;;18.30;68.70;;;;;;5052515;28;20498;-76
2023/06/06 03:31:15;;;;;;;3.67;2.53;;;18.30;68.00;;;;;;5054005;28;20490;-76
2023/06/06 03:33:44;;;;;;;3.10;2.67;;;18.30;67.90;;;;;;5043681;28;20459;-77
2023/06/06 03:36:11;;;;;;;3.23;3.00;;;18.40;68.20;;;;;;5055724;28;20869;-76
2023/06/06 03:38:40;;;;;;;3.60;2.77;;;18.40;68.30;;;;;;5054318;28;20459;-76
2023/06/06 03:41:08;;;;;;;4.20;2.83;;;18.40;68.40;;;;;;5056295;28;20471;-75
2023/06/06 03:43:42;;;;;;;7.67;3.30;;;18.40;68.50;;;;;;5052924;28;20541;-76
2023/06/06 03:46:10;;;;;;;4.30;2.70;;;18.40;68.40;;;;;;5053689;28;20475;-76
2023/06/06 03:48:48;;;;;;;3.77;2.90;;;18.40;68.50;;;;;;5052661;28;20475;-76
2023/06/06 03:51:25;;;;;;;3.43;2.37;;;18.40;68.50;;;;;;5052753;28;20474;-76
2023/06/06 03:53:55;;;;;;;4.53;2.73;;;18.40;68.50;;;;;;5055583;28;20901;-76
2023/06/06 03:56:27;;;;;;;2.73;2.53;;;18.40;68.40;;;;;;5054917;28;20487;-76
2023/06/06 03:58:57;;;;;;;3.20;3.00;;;18.40;68.20;;;;;;5053164;28;20459;-76
2023/06/06 04:01:25;;;;;;;2.93;2.73;;;18.40;68.30;;;;;;5054501;28;20545;-76
2023/06/06 04:03:55;;;;;;;5.03;3.00;;;18.40;68.10;;;;;;5049463;28;20471;-77
2023/06/06 04:06:25;;;;;;;3.27;2.60;;;18.40;68.00;;;;;;5054604;28;20473;-76
2023/06/06 04:09:04;;;;;;;2.80;2.43;;;18.40;67.80;;;;;;5051377;28;20511;-76
2023/06/06 04:11:51;;;;;;;7.27;2.83;;;18.40;67.80;;;;;;5053022;28;20558;-76
2023/06/06 04:14:24;;;;;;;3.57;3.27;;;18.40;67.80;;;;;;5053600;28;20473;-75
2023/06/06 04:16:51;;;;;;;2.90;2.40;;;18.40;67.80;;;;;;5051767;28;20991;-76
2023/06/06 04:19:20;;;;;;;4.57;3.10;;;18.40;67.90;;;;;;5054266;28;20471;-77
2023/06/06 04:21:47;;;;;;;3.03;2.73;;;18.40;67.90;;;;;;5053503;28;20476;-76
2023/06/06 04:24:16;;;;;;;5.97;3.13;;;18.40;68.00;;;;;;5054066;28;20892;-75
2023/06/06 04:26:43;;;;;;;3.90;2.80;;;18.40;67.80;;;;;;5042605;28;20517;-76
2023/06/06 04:29:12;;;;;;;2.90;2.70;;;18.50;67.90;;;;;;5052816;28;20459;-76
2023/06/06 04:31:41;;;;;;;2.97;2.70;;;18.50;67.80;;;;;;5054103;28;20617;-76
2023/06/06 04:34:09;;;;;;;3.60;3.30;;;18.60;67.80;;;;;;5052853;28;20765;-76
2023/06/06 04:36:40;;;;;;;3.07;2.87;;;18.60;67.90;;;;;;5052501;28;20478;-74
2023/06/06 04:39:07;;;;;;;3.20;2.77;;;18.60;67.90;;;;;;5053089;28;20490;-76
2023/06/06 04:41:35;;;;;;;4.50;2.63;;;18.60;67.80;;;;;;5052995;28;20494;-75
2023/06/06 04:44:03;;;;;;;3.30;3.00;;;18.70;67.70;;;;;;5043568;28;20474;-76
2023/06/06 04:46:30;;;;;;;7.50;2.90;;;18.70;67.90;;;;;;5053603;28;20973;-75
2023/06/06 04:49:01;;;;;;;3.00;2.57;;;18.70;67.90;;;;;;5052937;28;20479;-75
2023/06/06 04:51:30;;;;;;;3.27;2.93;;;18.70;68.00;;;;;;5053294;28;20870;-75
2023/06/06 04:54:01;;;;;;;3.90;2.90;;;18.70;67.70;;;;;;5053111;28;20471;-75
2023/06/06 04:56:29;;;;;;;6.00;3.37;;;18.80;67.70;;;;;;5053185;28;20518;-76
2023/06/06 04:58:56;;;;;;;3.73;3.03;;;18.80;67.60;;;;;;5052680;28;20797;-75
2023/06/06 05:01:24;;;;;;;4.90;3.20;;;18.80;67.40;;;;;;5052391;28;20533;-74
2023/06/06 05:03:51;;;;;;;2.80;2.60;;;18.90;67.60;;;;;;5053174;28;20957;-76
2023/06/06 05:06:19;;;;;;;3.40;2.70;;;18.90;67.60;;;;;;5043152;28;20455;-76
2023/06/06 05:08:48;;;;;;;3.17;2.67;;;19.00;67.70;;;;;;5052768;28;20817;-74
2023/06/06 05:11:19;;;;;;;8.10;3.03;;;19.10;67.70;;;;;;5051560;28;20474;-76
2023/06/06 05:13:47;;;;;;;3.13;2.50;;;19.10;67.30;;;;;;5052754;28;20478;-75
2023/06/06 05:16:14;;;;;;;3.20;2.40;;;19.10;67.10;;;;;;5052182;28;20463;-76
2023/06/06 05:18:41;;;;;;;3.40;2.77;;;19.20;67.00;;;;;;5052887;28;20853;-75
2023/06/06 05:21:08;;;;;;;3.73;3.13;;;19.30;67.00;;;;;;5051971;28;20505;-76
2023/06/06 05:23:36;;;;;;;3.50;3.17;;;19.30;66.90;;;;;;5052838;28;20471;-75
2023/06/06 05:26:06;;;;;;;4.53;3.20;;;19.40;66.70;;;;;;5052267;28;20479;-75
2023/06/06 05:28:34;;;;;;;5.03;3.30;;;19.40;66.60;;;;;;5044328;28;20471;-76
2023/06/06 05:31:02;;;;;;;5.13;3.23;;;19.40;66.70;;;;;;5052350;28;20460;-76
2023/06/06 05:33:31;;;;;;;3.80;3.50;;;19.50;66.60;;;;;;5052981;28;20559;-76
2023/06/06 05:35:58;;;;;;;5.20;3.30;;;19.50;66.20;;;;;;5052770;28;20483;-75
2023/06/06 05:38:26;;;;;;;3.30;3.00;;;19.60;66.00;;;;;;5050782;28;20467;-75
2023/06/06 05:40:53;;;;;;;4.00;3.60;;;19.70;66.00;;;;;;5052789;28;21046;-75
2023/06/06 05:43:20;;;;;;;4.53;2.93;;;19.80;65.90;;;;;;5051673;28;20470;-76
2023/06/06 05:45:48;;;;;;;4.23;3.20;;;19.80;65.60;;;;;;5051660;28;20499;-76
2023/06/06 05:48:15;;;;;;;3.30;2.80;;;19.90;65.60;;;;;;5051555;28;20468;-75
2023/06/06 05:50:43;;;;;;;4.50;4.10;;;20.00;65.50;;;;;;5051894;28;20909;-75
2023/06/06 05:53:10;;;;;;;5.10;3.70;;;20.10;65.40;;;;;;5051565;28;20459;-75
2023/06/06 05:55:55;;;;;;;3.50;3.10;;;20.20;65.40;;;;;;5052713;28;20499;-74
2023/06/06 05:58:36;;;;;;;6.73;3.67;;;20.30;65.10;;;;;;5049117;28;20554;-76
2023/06/06 06:01:05;;;;;;;3.63;3.37;;;20.40;65.10;;;;;;5052911;28;21018;-76
2023/06/06 06:03:35;;;;;;;4.67;3.13;;;20.50;64.00;;;;;;5050866;28;20455;-78
2023/06/06 06:06:05;;;;;;;4.03;2.77;;;20.60;63.30;;;;;;5053441;28;20468;-75
2023/06/06 06:08:36;;;;;;;3.50;2.60;;;20.70;62.90;;;;;;5052305;28;20493;-75
2023/06/06 06:11:03;;;;;;;3.20;2.90;;;20.80;62.60;;;;;;5052519;28;20949;-76
2023/06/06 06:13:31;;;;;;;4.07;3.13;;;21.00;62.30;;;;;;5054767;28;20501;-77
2023/06/06 06:16:20;;;;;;;5.30;3.70;;;21.10;61.50;;;;;;5056112;28;20498;-76
2023/06/06 06:18:47;;;;;;;6.30;3.77;;;21.20;60.90;;;;;;5055231;28;20816;-75
2023/06/06 06:21:15;;;;;;;5.87;3.40;;;21.30;60.80;;;;;;5055910;28;20601;-75
2023/06/06 06:23:42;;;;;;;3.67;3.30;;;21.50;60.90;;;;;;5042760;28;20495;-77
2023/06/06 06:26:09;;;;;;;5.03;4.27;;;21.60;60.80;;;;;;5056678;28;20475;-77
2023/06/06 06:28:36;;;;;;;4.53;4.13;;;21.80;60.60;;;;;;5045334;28;20471;-75
2023/06/06 06:31:03;;;;;;;4.20;3.80;;;22.00;60.40;;;;;;5055392;28;20467;-76
2023/06/06 06:33:33;;;;;;;3.90;2.87;;;22.10;59.50;;;;;;5056321;28;20471;-76
2023/06/06 06:36:01;;;;;;;7.67;3.03;;;22.20;59.00;;;;;;5055855;28;20466;-75
2023/06/06 06:38:28;;;;;;;8.07;3.67;;;22.40;59.10;;;;;;5055710;28;20499;-76
2023/06/06 06:40:55;;;;;;;4.07;3.60;;;22.60;59.60;;;;;;5044635;28;20801;-75
2023/06/06 06:43:22;;;;;;;5.13;3.10;;;22.80;59.00;;;;;;5055874;28;20548;-75
2023/06/06 06:45:51;;;;;;;5.63;3.37;;;23.00;58.90;;;;;;5054148;28;20796;-76
2023/06/06 06:48:18;;;;;;;4.57;3.27;;;23.20;58.00;;;;;;5056059;28;21002;-75
2023/06/06 06:50:46;;;;;;;3.47;2.90;;;23.40;57.40;;;;;;5055248;28;20567;-75
2023/06/06 06:53:14;;;;;;;4.40;3.13;;;23.60;57.10;;;;;;5055916;28;20467;-76
2023/06/06 06:55:44;;;;;;;3.73;3.43;;;23.80;56.50;;;;;;5054774;28;20471;-77
2023/06/06 06:58:13;;;;;;;4.50;3.20;;;24.00;56.50;;;;;;5055295;28;20477;-76
2023/06/06 07:00:40;;;;;;;4.60;3.50;;;24.10;57.70;;;;;;5056245;28;20474;-76
2023/06/06 07:03:08;;;;;;;4.80;3.43;;;24.30;56.70;;;;;;5055395;28;20760;-76
2023/06/06 07:05:35;;;;;;;6.37;3.53;;;24.30;55.80;;;;;;5055960;28;20868;-76
2023/06/06 07:08:04;;;;;;;5.10;3.40;;;24.30;55.40;;;;;;5054586;28;20488;-76
2023/06/06 07:10:35;;;;;;;3.50;3.10;;;24.20;55.00;;;;;;5055095;28;20924;-76
2023/06/06 07:13:03;;;;;;;3.63;3.00;;;24.10;55.20;;;;;;5054931;28;20482;-75
2023/06/06 07:15:30;;;;;;;4.93;3.20;;;24.00;55.40;;;;;;5055231;28;20483;-76
2023/06/06 07:17:56;;;;;;;6.97;3.50;;;24.00;55.50;;;;;;5054934;28;20991;-75
2023/06/06 07:20:28;;;;;;;5.97;3.27;;;23.90;55.70;;;;;;5055458;28;20494;-75
2023/06/06 07:22:56;;;;;;;2.90;2.70;;;23.80;55.70;;;;;;5053358;28;20471;-76
2023/06/06 07:25:24;;;;;;;3.90;3.10;;;23.80;56.00;;;;;;5055150;28;20485;-75
2023/06/06 07:27:54;;;;;;;7.43;4.07;;;23.80;56.00;;;;;;5054781;28;20486;-76
2023/06/06 07:30:21;;;;;;;6.17;3.77;;;23.80;56.90;;;;;;5055090;28;20464;-76
2023/06/06 07:32:49;;;;;;;5.60;3.90;;;23.80;56.20;;;;;;5055039;28;20479;-76
2023/06/06 07:35:19;;;;;;;5.97;3.17;;;23.70;56.20;;;;;;5054765;28;20877;-76
2023/06/06 07:37:46;;;;;;;4.67;3.70;;;23.70;56.20;;;;;;5055056;28;20463;-76
2023/06/06 07:40:14;;;;;;;4.50;3.57;;;23.60;56.10;;;;;;5054511;28;20747;-75
2023/06/06 07:42:43;;;;;;;3.83;3.30;;;23.60;56.30;;;;;;5055116;28;20471;-74
2023/06/06 07:45:11;;;;;;;5.70;4.23;;;23.50;56.20;;;;;;5054479;28;20849;-75
2023/06/06 07:47:44;;;;;;;7.70;3.90;;;23.50;56.40;;;;;;5055544;28;20905;-75
2023/06/06 07:50:12;;;;;;;5.80;4.10;;;23.50;56.40;;;;;;5053463;28;20533;-74
2023/06/06 07:52:43;;;;;;;4.93;4.47;;;23.50;56.50;;;;;;5054681;28;20467;-74
2023/06/06 07:55:11;;;;;;;8.10;4.30;;;23.50;56.60;;;;;;5053767;28;20491;-75
2023/06/06 07:57:39;;;;;;;5.40;3.27;;;23.60;56.80;;;;;;5054386;28;21127;-75
2023/06/06 08:00:10;;;;;;;5.00;4.00;;;23.70;56.80;;;;;;5054056;28;20752;-75
2023/06/06 08:02:37;;;;;;;5.80;4.03;;;23.70;56.90;;;;;;5054260;28;20471;-76
2023/06/06 08:05:04;;;;;;;5.23;3.43;;;23.80;56.90;;;;;;5053501;28;20545;-74
2023/06/06 08:07:31;;;;;;;7.57;3.70;;;23.80;56.90;;;;;;5054191;28;20538;-75
2023/06/06 08:09:58;;;;;;;7.03;3.20;;;23.80;56.80;;;;;;5053814;28;20475;-75
2023/06/06 08:12:25;;;;;;;7.40;3.33;;;23.80;56.80;;;;;;5054136;28;20510;-75
2023/06/06 08:14:52;;;;;;;5.43;3.50;;;23.90;57.00;;;;;;5053876;28;20471;-74
2023/06/06 08:17:20;;;;;;;4.73;3.20;;;23.90;57.20;;;;;;5053403;28;20498;-75
2023/06/06 08:19:47;;;;;;;14.80;5.03;;;23.90;56.90;;;;;;5054017;28;20533;-75
2023/06/06 08:22:14;;;;;;;8.50;4.10;;;23.90;56.80;;;;;;5053234;28;20471;-74
2023/06/06 08:24:42;;;;;;;5.17;3.60;;;24.00;57.00;;;;;;5053988;28;20504;-75
2023/06/06 08:27:12;;;;;;;7.27;3.87;;;24.00;56.80;;;;;;5053195;28;20503;-75
2023/06/06 08:29:39;;;;;;;7.57;3.70;;;24.00;56.80;;;;;;5053902;28;20470;-75
2023/06/06 08:32:08;;;;;;;4.97;4.23;;;24.10;57.10;;;;;;5053156;28;20467;-75
2023/06/06 08:34:37;;;;;;;9.33;4.30;;;24.10;57.10;;;;;;5053462;28;20467;-75
2023/06/06 08:37:05;;;;;;;5.57;3.83;;;24.10;56.30;;;;;;5052962;28;20471;-75
2023/06/06 08:39:32;;;;;;;3.10;2.80;;;24.10;56.40;;;;;;5053184;28;20474;-75
2023/06/06 08:42:00;;;;;;;7.03;4.53;;;24.20;56.30;;;;;;5052813;28;20467;-75
2023/06/06 08:44:27;;;;;;;9.43;3.83;;;24.30;56.10;;;;;;5053577;28;20466;-75
2023/06/06 08:47:03;;;;;;;6.90;3.90;;;24.20;55.30;;;;;;5054163;28;20475;-76
2023/06/06 08:49:33;;;;;;;13.77;4.40;;;24.20;55.80;;;;;;5043595;28;20470;-74
2023/06/06 08:52:03;;;;;;;6.07;3.40;;;24.20;55.90;;;;;;5052786;28;20497;-74
2023/06/06 08:54:31;;;;;;;6.13;3.83;;;24.20;56.00;;;;;;5053611;28;20471;-74
2023/06/06 08:56:59;;;;;;;5.37;3.47;;;24.30;56.30;;;;;;5052496;28;21031;-74
2023/06/06 08:59:27;;;;;;;4.13;3.53;;;24.30;55.90;;;;;;5053404;28;20463;-75
2023/06/06 09:01:55;;;;;;;5.33;4.33;;;24.30;56.00;;;;;;5052939;28;20475;-75
2023/06/06 09:04:23;;;;;;;7.23;4.00;;;24.30;56.00;;;;;;5052756;28;20533;-73
2023/06/06 09:06:50;;;;;;;6.97;4.30;;;24.30;56.20;;;;;;5052502;28;20491;-74
2023/06/06 09:12:06;;;;;;;5.37;3.60;;;24.40;56.00;;;;;;5053618;28;20596;-74
2023/06/06 09:14:33;;;;;;;10.30;4.07;;;24.50;56.20;;;;;;5073669;28;20926;-74
2023/06/06 09:17:00;;;;;;;6.43;3.70;;;24.50;55.70;;;;;;5071242;28;20481;-75
2023/06/06 09:19:27;;;;;;;4.53;3.53;;;24.50;55.60;;;;;;5061040;28;20474;-76
2023/06/06 09:21:58;;;;;;;4.83;3.93;;;24.60;55.70;;;;;;5062580;28;20466;-76
2023/06/06 09:24:27;;;;;;;5.40;4.17;;;24.70;55.80;;;;;;5073113;28;20850;-76
2023/06/06 09:26:54;;;;;;;4.53;3.70;;;24.70;55.70;;;;;;5072307;28;20466;-76
2023/06/06 09:29:22;;;;;;;4.60;4.20;;;24.80;55.40;;;;;;5072619;28;20465;-75
2023/06/06 09:31:49;;;;;;;6.67;4.50;;;24.80;55.20;;;;;;5072238;28;20462;-76
2023/06/06 09:34:16;;;;;;;7.13;3.93;;;24.80;55.20;;;;;;5072996;28;20842;-74
2023/06/06 09:36:44;;;;;;;9.90;4.33;;;24.80;55.00;;;;;;5073426;28;20551;-75
2023/06/06 09:39:13;;;;;;;6.97;4.80;;;24.90;55.20;;;;;;5073589;28;20503;-74
2023/06/06 09:41:42;;;;;;;4.10;3.67;;;25.00;55.20;;;;;;5075169;28;20537;-75
2023/06/06 09:44:20;;;;;;;5.00;3.97;;;25.00;55.00;;;;;;5074302;28;20531;-74
2023/06/06 09:46:47;;;;;;;5.27;4.27;;;25.10;55.00;;;;;;5071794;28;20809;-75
2023/06/06 09:49:14;;;;;;;5.90;4.70;;;25.20;54.90;;;;;;5072320;28;20492;-75
2023/06/06 09:51:42;;;;;;;4.13;3.70;;;25.10;54.70;;;;;;5072878;28;20539;-75
2023/06/06 09:54:12;;;;;;;8.10;4.10;;;25.10;55.10;;;;;;5071702;28;20505;-76
2023/06/06 09:56:42;;;;;;;7.57;4.60;;;25.10;55.10;;;;;;5072596;28;20482;-75
2023/06/06 09:59:11;;;;;;;4.57;3.80;;;25.10;55.00;;;;;;5071981;28;20481;-76
2023/06/06 10:01:42;;;;;;;10.93;4.20;;;25.10;55.30;;;;;;5061463;28;20462;-75
2023/06/06 10:04:17;;;;;;;6.03;4.00;;;25.10;55.40;;;;;;5071118;28;20477;-75
2023/06/06 10:06:46;;;;;;;4.40;3.90;;;25.20;55.30;;;;;;5072835;28;20477;-75
2023/06/06 10:09:15;;;;;;;6.63;4.57;;;25.20;55.30;;;;;;5088747;28;20471;-76
2023/06/06 10:11:45;;;;;;;8.07;5.17;;;25.20;55.30;;;;;;5092451;28;20488;-76
2023/06/06 10:14:15;;;;;;;11.23;4.40;;;25.30;55.40;;;;;;5092135;28;20472;-76
2023/06/06 10:16:42;;;;;;;6.60;4.80;;;25.30;55.60;;;;;;5093154;28;20477;-75
2023/06/06 10:19:13;;;;;;;6.83;4.33;;;25.40;55.80;;;;;;5077983;28;20469;-74
2023/06/06 10:21:44;;;;;;;5.53;4.43;;;25.30;56.00;;;;;;5051851;28;20497;-74
2023/06/06 10:24:11;;;;;;;8.87;4.70;;;25.40;56.10;;;;;;5051409;28;20471;-75
2023/06/06 10:26:47;;;;;;;4.90;3.70;;;25.50;56.10;;;;;;5052134;28;20467;-76
2023/06/06 10:29:20;;;;;;;4.70;4.20;;;25.50;56.30;;;;;;5051541;28;20507;-76
2023/06/06 10:31:53;;;;;;;4.60;3.50;;;25.60;56.30;;;;;;5051256;28;20984;-76
2023/06/06 10:34:25;;;;;;;4.53;4.13;;;25.60;56.20;;;;;;5049855;28;20790;-74
2023/06/06 10:36:54;;;;;;;4.80;4.50;;;25.70;56.40;;;;;;5051232;28;20921;-75
2023/06/06 10:39:23;;;;;;;5.07;4.57;;;25.70;56.60;;;;;;5052536;28;20459;-75
2023/06/06 10:41:53;;;;;;;5.07;3.70;;;25.70;57.30;;;;;;5052702;28;20455;-73
2023/06/06 10:44:22;;;;;;;4.20;3.90;;;25.80;56.80;;;;;;5053110;28;20549;-74
2023/06/06 10:47:16;;;;;;;4.80;3.73;;;25.80;56.90;;;;;;5051356;28;20529;-75
2023/06/06 10:50:21;;;;;;;4.13;3.83;;;25.90;56.90;;;;;;5051651;28;20467;-75
2023/06/06 10:52:51;;;;;;;5.43;4.10;;;25.80;56.50;;;;;;5051638;28;20470;-76
2023/06/06 10:55:38;;;;;;;4.37;3.97;;;25.80;56.50;;;;;;5051510;28;20475;-74
2023/06/06 10:58:09;;;;;;;5.13;4.63;;;25.90;57.10;;;;;;5033155;28;20496;-75
2023/06/06 11:00:40;;;;;;;4.57;3.97;;;25.90;56.20;;;;;;5034945;28;20476;-74
2023/06/06 11:03:08;;;;;;;4.60;4.20;;;26.00;56.20;;;;;;5036126;28;20476;-74
2023/06/06 11:06:12;;;;;;;4.87;4.00;;;26.00;56.20;;;;;;5038869;28;20536;-75
2023/06/06 11:08:42;;;;;;;4.10;3.70;;;26.10;56.30;;;;;;5040218;28;20538;-76
2023/06/06 11:11:21;;;;;;;9.77;4.10;;;26.20;56.10;;;;;;5038665;28;20496;-76
2023/06/06 11:13:58;;;;;;;5.23;4.73;;;26.20;55.80;;;;;;5036742;28;20957;-75
2023/06/06 11:16:59;;;;;;;5.03;4.30;;;26.30;55.60;;;;;;5037334;28;20495;-76
2023/06/06 11:19:33;;;;;;;5.03;4.47;;;26.20;55.30;;;;;;5031319;28;20462;-75
2023/06/06 11:22:02;;;;;;;4.33;3.80;;;26.10;55.00;;;;;;5035793;28;20480;-75
2023/06/06 11:24:36;;;;;;;6.50;4.00;;;26.20;54.70;;;;;;5034209;28;20522;-74
2023/06/06 11:27:06;;;;;;;6.73;3.90;;;26.20;54.40;;;;;;5037066;28;20482;-76
2023/06/06 11:29:34;;;;;;;5.17;3.70;;;26.20;54.40;;;;;;5037667;28;20469;-76
2023/06/06 11:32:10;;;;;;;4.00;3.63;;;26.20;54.30;;;;;;5040792;28;20483;-77
2023/06/06 11:34:41;;;;;;;4.63;3.87;;;26.30;54.40;;;;;;5030630;28;20483;-76
2023/06/06 11:37:09;;;;;;;4.20;3.53;;;26.20;54.40;;;;;;5040739;28;20464;-74
2023/06/06 11:39:39;;;;;;;4.20;3.87;;;26.10;54.00;;;;;;5039617;28;20464;-74
2023/06/06 11:42:17;;;;;;;4.70;4.30;;;26.20;54.00;;;;;;5035373;28;20559;-75
2023/06/06 11:44:48;;;;;;;5.77;3.57;;;26.10;54.10;;;;;;5008077;28;20773;-75
2023/06/06 11:47:15;;;;;;;4.80;4.40;;;26.10;54.30;;;;;;5034956;28;20492;-76
2023/06/06 11:49:44;;;;;;;5.53;5.03;;;26.10;54.50;;;;;;5034135;28;20958;-75
2023/06/06 11:52:11;;;;;;;4.53;4.20;;;26.10;54.50;;;;;;5034596;28;20954;-75
2023/06/06 11:54:40;;;;;;;5.50;5.03;;;26.10;54.20;;;;;;5033561;28;20468;-74
2023/06/06 11:57:09;;;;;;;4.47;4.13;;;26.10;54.40;;;;;;5033420;28;20484;-75
2023/06/06 11:59:36;;;;;;;4.40;4.00;;;26.10;54.30;;;;;;5034288;28;20464;-74
2023/06/06 12:02:05;;;;;;;3.47;3.17;;;26.00;53.80;;;;;;5034711;28;20534;-75
2023/06/06 12:04:36;;;;;;;4.07;3.77;;;26.00;53.60;;;;;;5033780;28;20464;-75
2023/06/06 12:07:05;;;;;;;4.23;3.83;;;26.00;53.70;;;;;;5030538;28;20957;-75
2023/06/06 12:09:33;;;;;;;3.50;3.00;;;26.00;54.00;;;;;;5032829;28;20479;-75
2023/06/06 12:12:01;;;;;;;5.77;4.50;;;26.00;53.90;;;;;;5034032;28;20855;-75
2023/06/06 12:14:32;;;;;;;6.27;4.07;;;26.00;54.00;;;;;;5033627;28;20495;-75
2023/06/06 12:17:05;;;;;;;6.33;3.63;;;26.00;53.90;;;;;;5023758;28;20484;-75
2023/06/06 12:19:32;;;;;;;5.13;4.00;;;26.00;53.70;;;;;;5032438;28;20496;-74
2023/06/06 12:21:59;;;;;;;5.00;4.50;;;26.00;53.60;;;;;;5033966;28;20460;-74
2023/06/06 12:24:33;;;;;;;7.23;4.07;;;26.00;53.60;;;;;;5033484;28;20907;-75
2023/06/06 12:27:02;;;;;;;4.20;3.80;;;26.10;53.80;;;;;;5032316;28;20941;-74
2023/06/06 12:29:33;;;;;;;6.83;4.30;;;26.10;53.90;;;;;;5033764;28;20468;-76
2023/06/06 12:32:18;;;;;;;6.57;4.00;;;26.00;53.60;;;;;;5033220;28;20468;-75
2023/06/06 12:34:49;;;;;;;4.67;4.27;;;26.00;53.40;;;;;;5022728;28;20482;-76
2023/06/06 12:37:16;;;;;;;5.27;4.50;;;26.00;53.30;;;;;;5033402;28;20476;-75
2023/06/06 12:39:47;;;;;;;5.13;4.13;;;26.00;53.20;;;;;;5033722;28;20468;-75
2023/06/06 12:42:15;;;;;;;4.13;3.73;;;26.00;53.20;;;;;;5032861;28;20464;-75
2023/06/06 12:44:42;;;;;;;6.83;4.27;;;26.00;53.30;;;;;;5032981;28;20499;-75
2023/06/06 12:47:12;;;;;;;4.17;3.80;;;26.10;53.20;;;;;;5033493;28;20464;-75
2023/06/06 12:49:40;;;;;;;4.93;3.73;;;26.10;53.20;;;;;;5033558;28;20498;-75
2023/06/06 12:52:11;;;;;;;6.30;4.03;;;26.10;53.30;;;;;;5032908;28;20567;-75
2023/06/06 12:54:41;;;;;;;4.30;4.00;;;26.10;53.50;;;;;;5036061;28;20801;-75
2023/06/06 12:57:10;;;;;;;5.70;4.50;;;26.10;53.30;;;;;;5054857;28;20459;-75
2023/06/06 12:59:41;;;;;;;5.30;4.27;;;26.10;53.50;;;;;;5060339;28;20471;-76
2023/06/06 13:02:09;;;;;;;4.90;4.00;;;26.10;53.60;;;;;;5052929;28;20533;-76
2023/06/06 13:04:40;;;;;;;4.20;3.90;;;26.10;53.60;;;;;;5071919;28;20459;-76